Time;durP1;ratioP1;P1;durP2;ratioP2;P2;SDS_P1;SDS_P2;PMS_P1;PMS_P2;Temp;Humidity;BMP_temperature;BMP_pressure;BME280_temperature;BME280_humidity;BME280_pressure;Samples;Min_cycle;Max_cycle;Signal;HPM_P1;HPM_P2
2022/12/07 00:02:07;;;;;;;379.00;18.50;;;0.50;1.00;0.70;93879.00;;;;7395661;19;20216;-75
2022/12/07 00:04:41;;;;;;;333.80;16.33;;;0.50;1.00;0.60;93877.00;;;;7396351;19;20149;-77
2022/12/07 00:07:08;;;;;;;284.43;17.40;;;0.50;1.00;0.70;93874.00;;;;7398048;19;20121;-77
2022/12/07 00:09:35;;;;;;;58.77;10.37;;;0.50;1.00;0.70;93891.00;;;;7399337;19;20133;-77
2022/12/07 00:12:09;;;;;;;95.77;11.13;;;0.50;1.00;0.70;93870.00;;;;7397647;19;20133;-77
2022/12/07 00:14:36;;;;;;;130.47;12.57;;;0.50;1.00;0.70;93880.00;;;;7396063;19;20534;-77
2022/12/07 00:17:03;;;;;;;87.93;10.33;;;0.50;1.00;0.60;93875.00;;;;7397809;19;20140;-77
2022/12/07 00:19:37;;;;;;;18.03;8.13;;;0.50;1.00;0.50;93885.00;;;;7397269;19;20172;-77
2022/12/07 00:22:04;;;;;;;14.63;8.20;;;0.50;1.00;0.70;93880.00;;;;7397630;19;20140;-77
2022/12/07 00:24:31;;;;;;;9.63;6.53;;;0.40;1.00;0.70;93825.00;;;;7396084;19;20532;-76
2022/12/07 00:27:05;;;;;;;12.40;8.33;;;0.40;1.00;0.70;93873.00;;;;7398088;19;20125;-77
2022/12/07 00:29:32;;;;;;;15.30;8.50;;;0.30;1.00;0.70;93861.00;;;;7399404;19;20139;-77
2022/12/07 00:31:59;;;;;;;12.50;7.50;;;0.30;1.00;0.60;93883.00;;;;7397420;19;20145;-76
2022/12/07 00:34:33;;;;;;;13.30;8.30;;;0.40;1.00;0.60;93854.00;;;;7396423;19;20136;-78
2022/12/07 00:37:00;;;;;;;14.83;8.03;;;0.40;1.00;0.70;93862.00;;;;7398094;19;20146;-78
2022/12/07 00:39:27;;;;;;;13.70;8.60;;;0.40;1.00;0.60;93872.00;;;;7397495;19;20504;-78
2022/12/07 00:42:07;;;;;;;12.67;7.50;;;0.40;1.00;0.60;93860.00;;;;7395626;19;20179;-78
2022/12/07 00:44:41;;;;;;;15.43;7.63;;;0.40;1.00;0.60;93872.00;;;;7395476;19;20129;-76
2022/12/07 00:47:14;;;;;;;10.90;7.27;;;0.40;1.00;0.80;93886.00;;;;7396765;19;20136;-77
2022/12/07 00:49:41;;;;;;;11.37;7.60;;;0.40;1.00;0.60;93870.00;;;;7398691;19;20132;-77
2022/12/07 00:52:08;;;;;;;11.63;7.10;;;0.40;1.00;0.60;93879.00;;;;7398593;19;20132;-77
2022/12/07 00:54:42;;;;;;;13.60;7.67;;;0.40;1.00;0.70;93866.00;;;;7393475;19;20149;-76
2022/12/07 00:57:09;;;;;;;12.17;7.80;;;0.30;1.00;0.70;93867.00;;;;7395640;19;20630;-76
2022/12/07 00:59:36;;;;;;;11.27;7.40;;;0.30;1.00;0.60;93863.00;;;;7397062;19;20160;-76
2022/12/07 01:02:10;;;;;;;12.20;7.57;;;0.30;1.00;0.50;93866.00;;;;7393413;19;20145;-75
2022/12/07 01:04:37;;;;;;;12.17;7.97;;;0.30;1.00;0.80;93883.00;;;;7391702;19;20133;-76
2022/12/07 01:07:04;;;;;;;11.27;7.60;;;0.30;1.00;0.70;93881.00;;;;7398133;19;20492;-76
2022/12/07 01:09:38;;;;;;;12.93;7.23;;;0.30;1.00;0.50;93864.00;;;;7397250;19;20129;-76
2022/12/07 01:12:05;;;;;;;12.90;7.47;;;0.30;1.00;0.50;93866.00;;;;7397664;19;20125;-76
2022/12/07 01:14:32;;;;;;;10.93;7.60;;;0.30;1.00;0.70;93869.00;;;;7396509;19;20141;-76
2022/12/07 01:17:06;;;;;;;9.67;6.47;;;0.30;1.00;0.60;93871.00;;;;7397195;19;20141;-76
2022/12/07 01:19:33;;;;;;;9.37;6.70;;;0.30;1.00;0.50;93872.00;;;;7396436;19;20151;-76
2022/12/07 01:22:00;;;;;;;11.23;6.77;;;0.30;1.00;0.60;93875.00;;;;7396103;19;20615;-76
2022/12/07 01:24:34;;;;;;;10.33;7.20;;;0.20;1.00;0.60;93884.00;;;;7394100;19;20162;-76
2022/12/07 01:27:01;;;;;;;8.87;6.40;;;0.20;1.00;0.50;93859.00;;;;7395899;19;20469;-75
2022/12/07 01:29:28;;;;;;;9.00;6.27;;;0.20;99.90;0.40;93862.00;;;;7395673;19;20141;-76
2022/12/07 01:32:01;;;;;;;9.30;6.20;;;0.20;99.90;0.40;93890.00;;;;7396599;19;20148;-76
2022/12/07 01:34:28;;;;;;;9.73;6.77;;;0.20;99.90;0.40;93867.00;;;;7395249;19;20158;-76
2022/12/07 01:36:55;;;;;;;8.73;6.03;;;0.20;99.90;0.40;93885.00;;;;7395422;19;20512;-76
2022/12/07 01:39:29;;;;;;;8.30;5.50;;;0.10;99.90;0.40;93891.00;;;;7395472;19;20181;-76
2022/12/07 01:42:02;;;;;;;9.07;5.73;;;0.10;99.90;0.30;93891.00;;;;7391016;19;20149;-77
2022/12/07 01:45:18;;;;;;;10.30;6.20;;;0.20;99.90;0.30;93904.00;;;;7394062;19;20591;-77
2022/12/07 01:47:57;;;;;;;8.83;5.80;;;0.20;99.90;0.40;93893.00;;;;7395728;19;20145;-77
2022/12/07 01:50:32;;;;;;;8.30;5.87;;;0.20;99.90;0.40;93879.00;;;;7402634;19;20139;-77
2022/12/07 01:53:06;;;;;;;8.90;6.10;;;0.20;99.90;0.50;93907.00;;;;7404183;19;20152;-77
2022/12/07 01:55:45;;;;;;;7.67;5.50;;;0.20;99.90;0.50;93899.00;;;;7400208;19;20148;-76
2022/12/07 01:58:14;;;;;;;8.93;5.70;;;0.10;99.90;0.40;93871.00;;;;7402368;19;20166;-76
2022/12/07 02:00:48;;;;;;;9.13;6.40;;;0.10;99.90;0.40;93891.00;;;;7402811;19;20141;-77
2022/12/07 02:03:37;;;;;;;9.37;6.63;;;0.10;99.90;0.40;93888.00;;;;7403707;19;20129;-76
2022/12/07 02:06:19;;;;;;;11.07;6.87;;;0.10;99.90;0.40;93893.00;;;;7403228;19;20149;-76
2022/12/07 02:08:46;;;;;;;10.23;6.70;;;0.10;99.90;0.50;93894.00;;;;7402652;19;20124;-76
2022/12/07 02:11:21;;;;;;;11.23;7.00;;;0.10;99.90;0.40;93889.00;;;;7401595;19;20464;-77
2022/12/07 02:13:49;;;;;;;8.83;6.60;;;0.10;99.90;0.40;93889.00;;;;7400502;19;20248;-77
2022/12/07 02:17:16;;;;;;;9.60;7.17;;;0.10;99.90;0.30;93896.00;;;;7402903;19;20128;-77
2022/12/07 02:20:07;;;;;;;9.90;6.47;;;0.10;99.90;0.40;93888.00;;;;7400867;19;20149;-76
2022/12/07 02:22:52;;;;;;;10.80;6.27;;;0.10;99.90;0.40;93901.00;;;;7402900;19;20124;-76
2022/12/07 02:26:07;;;;;;;9.87;6.30;;;0.00;99.90;0.50;93896.00;;;;7399409;19;20144;-76
2022/12/07 02:28:55;;;;;;;8.70;5.90;;;0.00;99.90;0.40;93892.00;;;;7402496;19;20121;-76
2022/12/07 02:31:31;;;;;;;10.00;6.07;;;0.00;99.90;0.30;93872.00;;;;7402375;19;20129;-77
2022/12/07 02:34:45;;;;;;;9.63;5.90;;;-0.10;99.90;0.20;93882.00;;;;7401004;19;20145;-77
2022/12/07 02:37:59;;;;;;;9.27;5.73;;;-0.10;99.90;0.20;93888.00;;;;7402512;19;20125;-77
2022/12/07 02:40:33;;;;;;;7.63;5.33;;;-0.10;99.90;0.10;93890.00;;;;7398374;19;20604;-76
2022/12/07 02:43:52;;;;;;;9.67;5.80;;;0.00;99.90;0.10;93892.00;;;;7397229;19;20176;-76
2022/12/07 02:46:28;;;;;;;11.73;6.10;;;-0.10;99.90;0.50;93858.00;;;;7398727;19;20164;-76
2022/12/07 02:49:04;;;;;;;9.57;6.03;;;-0.10;99.90;0.50;93866.00;;;;7401584;19;20546;-76
2022/12/07 02:51:33;;;;;;;9.17;6.27;;;-0.10;99.90;0.60;93884.00;;;;7400995;19;20596;-75
2022/12/07 02:54:00;;;;;;;8.10;6.17;;;-0.20;99.90;0.50;93860.00;;;;7399040;19;20156;-77
2022/12/07 02:57:06;;;;;;;9.57;6.03;;;-0.20;99.90;0.30;93876.00;;;;7400037;19;20171;-77
2022/12/07 02:59:35;;;;;;;10.67;6.43;;;-0.20;99.90;0.30;93867.00;;;;7397217;19;20639;-76
2022/12/07 03:02:51;;;;;;;10.93;6.83;;;-0.20;99.90;0.40;93873.00;;;;7399013;19;20136;-75
2022/12/07 03:05:42;;;;;;;10.30;7.17;;;-0.20;99.90;0.40;93854.00;;;;7398923;19;20149;-76
2022/12/07 03:08:43;;;;;;;10.77;7.00;;;-0.30;99.90;0.20;93852.00;;;;7399925;19;20623;-76
2022/12/07 03:11:46;;;;;;;11.90;7.10;;;-0.30;99.90;0.30;93874.00;;;;7400621;19;20587;-76
2022/12/07 03:14:45;;;;;;;9.90;6.40;;;-0.30;99.90;0.20;93870.00;;;;7397725;19;20137;-76
2022/12/07 03:17:30;;;;;;;11.33;6.70;;;-0.30;99.90;0.10;93862.00;;;;7398936;19;20170;-76
2022/12/07 03:20:09;;;;;;;11.63;7.80;;;-0.30;99.90;0.10;93870.00;;;;7399234;19;20618;-76
2022/12/07 03:22:41;;;;;;;10.70;6.63;;;-0.30;99.90;0.30;93844.00;;;;7398556;19;20145;-76
2022/12/07 03:25:17;;;;;;;12.10;6.87;;;-0.30;99.90;0.20;93862.00;;;;7396329;19;20144;-76
2022/12/07 03:27:58;;;;;;;11.20;7.17;;;-0.30;99.90;0.20;93867.00;;;;7400583;19;20133;-77
2022/12/07 03:30:48;;;;;;;11.73;7.37;;;-0.30;99.90;0.30;93860.00;;;;7400062;19;20132;-76
2022/12/07 03:33:30;;;;;;;13.10;7.57;;;-0.40;99.90;0.20;93869.00;;;;7400900;19;20184;-76
2022/12/07 03:36:08;;;;;;;11.37;6.90;;;-0.40;99.90;0.10;93862.00;;;;7400524;19;20137;-76
2022/12/07 03:38:47;;;;;;;13.40;7.53;;;-0.40;99.90;0.10;93838.00;;;;7398784;19;20148;-77
2022/12/07 03:41:37;;;;;;;10.93;7.20;;;-0.40;99.90;0.10;93863.00;;;;7400330;19;20146;-77
2022/12/07 03:44:20;;;;;;;11.33;7.10;;;-0.40;99.90;0.00;93857.00;;;;7399453;19;20132;-77
2022/12/07 03:47:05;;;;;;;11.03;7.03;;;-0.50;1.00;-0.10;93870.00;;;;7398709;19;20147;-77
2022/12/07 03:49:50;;;;;;;10.20;6.60;;;-0.50;1.00;-0.10;93844.00;;;;7398424;19;20148;-77
2022/12/07 03:52:52;;;;;;;11.87;6.83;;;-0.50;1.00;-0.20;93861.00;;;;7400241;19;20482;-77
2022/12/07 03:55:32;;;;;;;12.10;7.70;;;-0.50;1.00;-0.10;93852.00;;;;7396976;19;20121;-74
2022/12/07 03:58:12;;;;;;;10.73;6.77;;;-0.50;1.00;-0.20;93847.00;;;;7399319;19;20622;-76
2022/12/07 04:00:42;;;;;;;10.50;6.57;;;-0.60;1.00;0.00;93854.00;;;;7399131;19;20133;-77
2022/12/07 04:03:16;;;;;;;12.40;7.97;;;-0.50;1.00;0.00;93855.00;;;;7394290;19;20148;-76
2022/12/07 04:05:44;;;;;;;10.57;7.00;;;-0.50;1.00;0.00;93849.00;;;;7396070;19;20148;-77
2022/12/07 04:08:11;;;;;;;11.33;7.00;;;-0.50;1.00;-0.20;93833.00;;;;7397486;19;20603;-76
2022/12/07 04:10:46;;;;;;;11.67;7.53;;;-0.60;1.00;-0.20;93843.00;;;;7396487;19;20542;-76
2022/12/07 04:13:13;;;;;;;11.70;6.83;;;-0.60;1.00;-0.10;93826.00;;;;7397612;19;20136;-77
2022/12/07 04:15:40;;;;;;;9.73;6.37;;;-0.60;1.00;0.10;93819.00;;;;7399766;19;20163;-77
2022/12/07 04:18:14;;;;;;;10.87;7.23;;;-0.60;1.00;0.00;93820.00;;;;7397365;19;20117;-77
2022/12/07 04:20:41;;;;;;;10.20;6.73;;;-0.60;1.00;-0.20;93840.00;;;;7398087;19;20133;-77
2022/12/07 04:23:08;;;;;;;9.53;6.00;;;-0.60;1.00;-0.10;93820.00;;;;7398646;19;20129;-77
2022/12/07 04:25:42;;;;;;;9.87;5.83;;;-0.60;1.00;0.00;93839.00;;;;7398124;19;20140;-77
2022/12/07 04:28:09;;;;;;;10.03;6.30;;;-0.60;1.00;0.10;93827.00;;;;7398973;19;20121;-77
2022/12/07 04:30:36;;;;;;;8.17;5.70;;;-0.50;99.90;0.00;93806.00;;;;7397368;19;20136;-76
2022/12/07 04:33:10;;;;;;;10.57;5.73;;;-0.60;99.90;0.00;93819.00;;;;7397223;19;20480;-76
2022/12/07 04:35:37;;;;;;;8.13;5.77;;;-0.60;99.90;-0.20;93806.00;;;;7398756;19;20151;-77
2022/12/07 04:38:04;;;;;;;11.33;5.43;;;-0.70;99.90;-0.30;93810.00;;;;7396843;19;20141;-77
2022/12/07 04:40:38;;;;;;;8.57;5.50;;;-0.80;99.90;-0.60;93799.00;;;;7398687;19;20148;-77
2022/12/07 04:43:12;;;;;;;7.77;5.43;;;-0.90;99.90;-0.80;93805.00;;;;7396238;19;20168;-77
2022/12/07 04:45:48;;;;;;;11.20;5.50;;;-1.10;99.90;-0.80;93812.00;;;;7396948;19;20129;-77
2022/12/07 04:48:15;;;;;;;8.23;5.53;;;-1.20;99.90;-0.80;93803.00;;;;7398679;19;20144;-77
2022/12/07 04:50:42;;;;;;;7.83;5.20;;;-1.20;99.90;-0.80;93810.00;;;;7397109;19;20143;-77
2022/12/07 04:53:16;;;;;;;9.77;5.03;;;-1.20;99.90;-0.80;93794.00;;;;7398431;19;20587;-77
2022/12/07 04:55:45;;;;;;;9.87;5.40;;;-1.20;99.90;-0.80;93818.00;;;;7397539;19;20220;-77
2022/12/07 04:58:13;;;;;;;8.97;5.40;;;-1.20;99.90;-0.90;93810.00;;;;7392773;19;20153;-76
2022/12/07 05:00:47;;;;;;;9.63;5.30;;;-1.30;99.90;-1.00;93807.00;;;;7395643;19;20148;-74
2022/12/07 05:03:14;;;;;;;8.50;5.03;;;-1.30;99.90;-1.00;93802.00;;;;7394431;19;20128;-76
2022/12/07 05:05:43;;;;;;;7.77;4.97;;;-1.30;99.90;-1.10;93796.00;;;;7394281;19;20137;-76
2022/12/07 05:08:17;;;;;;;9.33;4.97;;;-1.30;99.90;-1.10;93822.00;;;;7393731;19;20133;-77
2022/12/07 05:10:44;;;;;;;9.00;4.83;;;-1.30;99.90;-1.20;93809.00;;;;7391118;19;20176;-74
2022/12/07 05:13:11;;;;;;;10.17;5.40;;;-1.30;99.90;-1.30;93813.00;;;;7394292;19;20129;-76
2022/12/07 05:15:48;;;;;;;7.37;4.43;;;-1.40;99.90;-1.20;93817.00;;;;7396134;19;20117;-76
2022/12/07 05:18:15;;;;;;;7.70;4.70;;;-1.40;99.90;-1.20;93819.00;;;;7396617;19;20576;-75
2022/12/07 05:20:43;;;;;;;10.53;5.47;;;-1.40;99.90;-1.20;93796.00;;;;7395001;19;20149;-76
2022/12/07 05:23:17;;;;;;;7.93;4.60;;;-1.40;99.90;-1.20;93819.00;;;;7391806;19;20133;-76
2022/12/07 05:25:44;;;;;;;6.83;4.57;;;-1.50;99.90;-1.10;93825.00;;;;7397497;19;20140;-76
2022/12/07 05:28:12;;;;;;;8.47;5.27;;;-1.40;99.90;-1.00;93831.00;;;;7400275;19;20584;-76
2022/12/07 05:30:46;;;;;;;7.60;4.97;;;-1.40;1.00;-1.00;93830.00;;;;7404137;19;20125;-77
2022/12/07 05:33:13;;;;;;;9.20;5.13;;;-1.40;1.00;-0.90;93818.00;;;;7402420;19;20165;-76
2022/12/07 05:35:40;;;;;;;7.27;4.97;;;-1.40;1.00;-0.80;93824.00;;;;7399884;19;20156;-76
2022/12/07 05:38:14;;;;;;;8.60;4.90;;;-1.30;1.00;-0.80;93816.00;;;;7403564;19;20149;-77
2022/12/07 05:40:41;;;;;;;7.83;5.03;;;-1.30;1.00;-0.80;93807.00;;;;7402302;19;20611;-76
2022/12/07 05:43:08;;;;;;;9.77;5.40;;;-1.30;1.00;-0.70;93818.00;;;;7399611;19;20596;-77
2022/12/07 05:45:42;;;;;;;8.37;5.27;;;-1.30;1.00;-0.80;93820.00;;;;7396946;19;20506;-76
2022/12/07 05:48:09;;;;;;;9.30;4.80;;;-1.30;1.00;-0.80;93817.00;;;;7402001;19;20148;-76
2022/12/07 05:50:36;;;;;;;8.30;5.47;;;-1.20;1.00;-0.80;93824.00;;;;7404099;19;20166;-77
2022/12/07 05:53:10;;;;;;;8.67;5.20;;;-1.20;1.00;-0.80;93804.00;;;;7403374;19;20125;-75
2022/12/07 05:55:37;;;;;;;7.17;4.73;;;-1.20;1.00;-0.90;93818.00;;;;7404028;19;20139;-77
2022/12/07 06:00:57;;;;;;;7.80;5.00;;;-1.10;1.00;-0.70;93820.00;;;;7401197;19;20192;-78
2022/12/07 06:03:24;;;;;;;7.30;5.13;;;-1.10;1.00;-0.50;93831.00;;;;7402966;19;20157;-75
2022/12/07 06:05:52;;;;;;;8.50;5.13;;;-1.10;1.00;-0.50;93842.00;;;;7400335;19;20153;-77
2022/12/07 06:08:25;;;;;;;8.00;5.13;;;-1.10;1.00;-0.30;93813.00;;;;7401248;19;20510;-77
2022/12/07 06:12:33;;;;;;;10.00;5.53;;;-1.10;99.90;-0.50;93832.00;;;;7401925;19;20172;-78
2022/12/07 06:13:48;;;;;;;9.60;5.33;;;-1.10;99.90;-0.70;93813.00;;;;7400010;19;20176;-77
2022/12/07 06:16:15;;;;;;;6.87;4.77;;;-1.10;99.90;-0.60;93846.00;;;;7400719;19;20136;-76
2022/12/07 06:18:42;;;;;;;8.87;5.30;;;-1.10;99.90;-0.70;93838.00;;;;7403152;19;20129;-78
2022/12/07 06:21:15;;;;;;;7.20;4.90;;;-1.10;99.90;-0.50;93812.00;;;;7401908;19;20164;-78
2022/12/07 06:23:42;;;;;;;8.47;5.63;;;-1.10;99.90;-0.60;93840.00;;;;7395597;19;20140;-78
2022/12/07 06:26:10;;;;;;;8.67;5.77;;;-1.10;99.90;-0.70;93846.00;;;;7394486;19;20552;-77
2022/12/07 06:28:44;;;;;;;9.37;6.13;;;-1.10;99.90;-0.50;93815.00;;;;7400079;19;20171;-79
2022/12/07 06:31:11;;;;;;;8.37;5.20;;;-1.10;99.90;-0.50;93848.00;;;;7402114;19;20579;-78
2022/12/07 06:33:41;;;;;;;8.93;5.63;;;-1.10;99.90;-0.60;93838.00;;;;7400483;19;20117;-77
2022/12/07 06:36:15;;;;;;;7.33;5.47;;;-1.10;99.90;-0.50;93840.00;;;;7399135;19;20148;-78
2022/12/07 06:38:42;;;;;;;9.53;6.03;;;-1.00;99.90;-0.40;93835.00;;;;7399206;19;20615;-78
2022/12/07 06:41:09;;;;;;;8.67;5.87;;;-1.10;1.00;-0.30;93826.00;;;;7390058;19;20133;-77
2022/12/07 06:43:50;;;;;;;9.80;5.90;;;-1.00;1.00;-0.50;93836.00;;;;7397557;19;20644;-77
2022/12/07 06:46:23;;;;;;;8.33;5.73;;;-1.00;1.00;-0.50;93842.00;;;;7394595;19;20596;-74
2022/12/07 06:48:57;;;;;;;8.37;5.50;;;-1.00;1.00;-0.20;93839.00;;;;7399120;19;20144;-76
2022/12/07 06:51:24;;;;;;;10.03;5.80;;;-1.00;1.00;-0.30;93830.00;;;;7399957;19;20624;-77
2022/12/07 06:53:51;;;;;;;8.67;5.73;;;-1.00;99.90;-0.50;93830.00;;;;7398897;19;20570;-77
2022/12/07 06:56:25;;;;;;;7.83;5.57;;;-1.00;99.90;-0.40;93823.00;;;;7400240;19;20588;-77
2022/12/07 06:58:52;;;;;;;10.30;5.43;;;-1.00;99.90;-0.60;93845.00;;;;7401077;19;20125;-77
2022/12/07 07:01:19;;;;;;;9.47;5.63;;;-1.00;99.90;-0.40;93846.00;;;;7399570;19;20144;-75
2022/12/07 07:03:53;;;;;;;7.60;5.27;;;-1.00;99.90;-0.50;93839.00;;;;7399609;19;20519;-76
2022/12/07 07:06:20;;;;;;;10.23;5.20;;;-1.00;99.90;-0.20;93834.00;;;;7398099;19;20161;-76
2022/12/07 07:08:48;;;;;;;7.43;4.93;;;-1.00;99.90;-0.50;93837.00;;;;7399111;19;20145;-76
2022/12/07 07:11:21;;;;;;;7.60;4.83;;;-1.00;99.90;-0.10;93839.00;;;;7398869;19;20137;-77
2022/12/07 07:13:48;;;;;;;8.70;4.87;;;-1.00;1.00;-0.40;93824.00;;;;7397556;19;20157;-76
2022/12/07 07:16:15;;;;;;;6.77;4.57;;;-1.00;1.00;-0.50;93840.00;;;;7398355;19;20498;-77
2022/12/07 07:18:49;;;;;;;7.83;4.37;;;-1.00;17.60;-0.50;93721.00;;;;7400470;19;20136;-77
2022/12/07 07:21:17;;;;;;;6.70;4.10;;;-1.00;19.60;-0.50;93839.00;;;;7398384;19;20153;-78
2022/12/07 07:23:44;;;;;;;7.60;4.83;;;-0.90;4.70;-0.30;93817.00;;;;7398157;19;20140;-77
2022/12/07 07:26:18;;;;;;;6.30;4.47;;;-0.90;1.00;-0.30;93815.00;;;;7396141;19;20141;-77
2022/12/07 07:28:49;;;;;;;6.33;4.07;;;-0.90;1.00;-0.20;93821.00;;;;7397957;19;20136;-78
2022/12/07 07:31:16;;;;;;;5.57;4.00;;;-0.90;1.00;-0.30;93819.00;;;;7398055;19;20212;-77
2022/12/07 07:33:50;;;;;;;6.43;4.00;;;-0.90;1.00;-0.30;93834.00;;;;7399825;19;20129;-78
2022/12/07 07:36:17;;;;;;;5.53;4.17;;;-0.90;1.00;-0.20;93822.00;;;;7398868;19;20153;-78
2022/12/07 07:38:44;;;;;;;5.53;4.37;;;-0.90;1.00;-0.40;93811.00;;;;7397587;19;20169;-77
2022/12/07 07:41:18;;;;;;;5.93;3.93;;;-0.80;1.00;-0.30;93828.00;;;;7397801;19;20144;-76
2022/12/07 07:43:51;;;;;;;4.97;3.70;;;-0.80;1.00;-0.10;93831.00;;;;7394998;19;20627;-77
2022/12/07 07:46:25;;;;;;;5.93;4.30;;;-0.80;1.00;-0.30;93825.00;;;;7393889;19;20139;-78
2022/12/07 07:48:52;;;;;;;4.40;3.57;;;-0.80;1.00;-0.20;93822.00;;;;7399137;19;20127;-77
2022/12/07 07:51:19;;;;;;;5.27;3.57;;;-0.70;1.00;-0.10;93803.00;;;;7397882;19;20141;-77
2022/12/07 07:53:53;;;;;;;5.80;3.57;;;-0.70;1.00;-0.20;93842.00;;;;7396958;19;20139;-77
2022/12/07 07:56:20;;;;;;;6.20;3.77;;;-0.70;1.00;-0.20;93830.00;;;;7395087;19;20124;-77
2022/12/07 07:58:51;;;;;;;4.77;3.63;;;-0.70;1.00;-0.10;93829.00;;;;7395151;19;20145;-78
2022/12/07 08:01:25;;;;;;;5.57;3.70;;;-0.70;1.00;-0.10;93840.00;;;;7398583;19;20174;-77
2022/12/07 08:03:52;;;;;;;5.30;3.97;;;-0.60;1.00;-0.10;93852.00;;;;7396819;19;20137;-77
2022/12/07 08:06:19;;;;;;;5.97;3.73;;;-0.60;1.00;0.10;93836.00;;;;7397386;19;20117;-78
2022/12/07 08:08:58;;;;;;;6.03;4.17;;;-0.60;1.00;0.00;93828.00;;;;7398376;19;20128;-77
2022/12/07 08:11:25;;;;;;;6.37;4.10;;;-0.60;1.00;-0.20;93843.00;;;;7397084;19;20149;-76
2022/12/07 08:13:52;;;;;;;6.27;4.17;;;-0.50;1.00;-0.10;93850.00;;;;7395407;19;20175;-78
2022/12/07 08:16:26;;;;;;;6.90;4.03;;;-0.50;1.00;-0.80;93855.00;;;;7397332;19;20144;-78
2022/12/07 08:18:53;;;;;;;6.23;4.07;;;-0.40;1.00;0.00;93846.00;;;;7396353;19;20489;-78
2022/12/07 08:21:20;;;;;;;5.17;3.87;;;-0.40;1.00;-0.20;93836.00;;;;7396672;19;20125;-79
2022/12/07 08:23:54;;;;;;;5.17;3.80;;;-0.30;1.00;0.20;93836.00;;;;7397344;19;20528;-78
2022/12/07 08:26:21;;;;;;;4.77;3.40;;;-0.30;1.00;0.30;93833.00;;;;7395071;19;20219;-78
2022/12/07 08:28:48;;;;;;;4.37;3.43;;;-0.30;1.00;0.50;93828.00;;;;7396327;19;20125;-77
2022/12/07 08:31:22;;;;;;;4.80;4.03;;;-0.40;1.00;0.40;93848.00;;;;7398209;19;20133;-78
2022/12/07 08:33:49;;;;;;;6.43;3.83;;;-0.30;1.00;0.30;93855.00;;;;7393472;19;20125;-77
2022/12/07 08:36:17;;;;;;;6.47;3.87;;;-0.30;1.00;0.40;93834.00;;;;7396660;19;20133;-78
2022/12/07 08:38:51;;;;;;;7.23;4.43;;;-0.20;1.00;0.50;93852.00;;;;7396978;19;20589;-78
2022/12/07 08:41:38;;;;;;;6.90;3.60;;;-0.20;1.00;0.50;93849.00;;;;7394919;19;20152;-78
2022/12/07 08:44:19;;;;;;;6.97;4.07;;;-0.20;1.00;0.60;93854.00;;;;7392378;19;20161;-76
2022/12/07 08:47:04;;;;;;;5.17;3.37;;;-0.10;1.00;0.30;93853.00;;;;7394987;19;20591;-78
2022/12/07 08:49:47;;;;;;;4.43;3.70;;;-0.10;1.00;0.50;93855.00;;;;7396054;19;20151;-77
2022/12/07 08:52:15;;;;;;;5.80;3.67;;;0.00;1.00;0.30;93857.00;;;;7394688;19;20158;-79
2022/12/07 08:54:49;;;;;;;6.47;3.77;;;0.10;1.00;0.30;93851.00;;;;7396139;19;20132;-78
2022/12/07 08:57:16;;;;;;;6.97;4.00;;;0.10;1.00;0.30;93840.00;;;;7398535;19;20128;-78
2022/12/07 08:59:43;;;;;;;4.60;3.70;;;0.20;1.00;0.60;93832.00;;;;7402981;19;20216;-78
2022/12/07 09:02:17;;;;;;;4.80;3.97;;;0.20;1.00;0.80;93834.00;;;;7404050;19;20121;-78
2022/12/07 09:04:44;;;;;;;5.70;3.50;;;0.20;1.00;0.70;93846.00;;;;7402179;19;20123;-78
2022/12/07 09:07:12;;;;;;;5.53;4.33;;;0.20;1.00;0.70;93838.00;;;;7400084;19;20144;-79
2022/12/07 09:09:46;;;;;;;5.60;4.30;;;0.20;1.00;0.50;93843.00;;;;7404263;19;20613;-78
2022/12/07 09:12:13;;;;;;;6.80;3.70;;;0.20;1.00;0.50;93845.00;;;;7402695;19;20600;-79
2022/12/07 09:14:40;;;;;;;5.30;3.60;;;0.20;1.00;0.80;93849.00;;;;7401891;19;20140;-78
2022/12/07 09:17:14;;;;;;;6.07;4.23;;;0.10;1.00;0.70;93838.00;;;;7402858;19;20615;-77
2022/12/07 09:19:42;;;;;;;5.27;4.10;;;0.20;1.00;0.80;93862.00;;;;7401908;19;20149;-78
2022/12/07 09:22:09;;;;;;;6.00;4.13;;;0.20;1.00;0.80;93863.00;;;;7402540;19;20128;-77
2022/12/07 09:24:50;;;;;;;5.47;4.17;;;0.20;1.00;0.90;93850.00;;;;7400432;19;20157;-78
2022/12/07 09:27:18;;;;;;;5.60;3.90;;;0.30;1.00;0.90;93847.00;;;;7400197;19;20614;-78
2022/12/07 09:29:52;;;;;;;6.93;4.07;;;0.50;1.00;1.20;93855.00;;;;7401055;19;20165;-73
2022/12/07 09:32:20;;;;;;;5.40;3.97;;;0.50;1.00;1.50;93852.00;;;;7400873;19;20614;-78
2022/12/07 09:34:47;;;;;;;6.63;4.50;;;0.50;1.00;1.20;93862.00;;;;7401734;19;20606;-76
2022/12/07 09:37:23;;;;;;;5.77;4.13;;;0.60;1.00;1.40;93837.00;;;;7397860;19;20155;-74
2022/12/07 09:39:50;;;;;;;6.37;4.10;;;0.70;1.00;1.40;93829.00;;;;7397787;19;20612;-76
2022/12/07 09:42:34;;;;;;;5.47;3.50;;;0.80;1.00;1.50;93835.00;;;;7400539;19;20155;-77
2022/12/07 09:45:23;;;;;;;4.80;3.43;;;0.80;1.00;1.40;93855.00;;;;7396304;19;20170;-78
2022/12/07 09:47:51;;;;;;;4.97;3.53;;;0.90;1.00;1.20;93839.00;;;;7401277;19;20156;-77
2022/12/07 09:50:28;;;;;;;8.33;4.30;;;1.00;99.90;1.70;93849.00;;;;7399621;19;20157;-77
2022/12/07 09:53:10;;;;;;;4.90;3.73;;;1.00;1.00;1.60;93837.00;;;;7400508;19;20683;-75
2022/12/07 09:55:44;;;;;;;4.50;3.47;;;1.00;99.90;1.50;93841.00;;;;7400029;19;20596;-78
2022/12/07 09:58:26;;;;;;;6.27;3.73;;;1.20;99.90;1.70;93840.00;;;;7400173;19;20151;-76
2022/12/07 10:01:17;;;;;;;4.60;3.73;;;1.20;99.90;1.70;93847.00;;;;7399490;19;20164;-77
2022/12/07 10:03:58;;;;;;;3.10;2.63;;;1.30;99.90;1.70;93824.00;;;;7399326;19;20156;-76
2022/12/07 10:06:32;;;;;;;4.20;3.10;;;1.20;99.90;1.20;93837.00;;;;7401645;19;20135;-76
2022/12/07 10:09:00;;;;;;;5.03;3.33;;;1.10;99.90;1.20;93830.00;;;;7398325;19;20149;-76
2022/12/07 10:11:27;;;;;;;4.27;3.07;;;1.10;99.90;1.20;93829.00;;;;7402401;19;20584;-77
2022/12/07 10:14:13;;;;;;;4.70;3.27;;;1.20;99.90;1.50;93842.00;;;;7400166;19;20173;-77
2022/12/07 10:16:41;;;;;;;5.47;3.17;;;1.10;99.90;1.50;93846.00;;;;7400433;19;20604;-77
2022/12/07 10:19:33;;;;;;;3.73;3.07;;;1.00;99.90;1.70;93824.00;;;;7398128;19;20149;-77
2022/12/07 10:22:16;;;;;;;4.90;3.23;;;1.00;1.00;1.40;93823.00;;;;7399917;19;20156;-77
2022/12/07 10:25:18;;;;;;;3.87;2.90;;;0.90;1.00;1.90;93824.00;;;;7398666;19;20132;-77
2022/12/07 10:28:16;;;;;;;3.80;2.80;;;0.80;1.00;1.40;93838.00;;;;7396228;19;20628;-77
2022/12/07 10:31:14;;;;;;;3.60;2.60;;;0.90;1.00;1.60;93821.00;;;;7400346;19;20466;-76
2022/12/07 10:33:59;;;;;;;3.77;2.60;;;1.00;1.00;2.00;93809.00;;;;7398332;19;20132;-77
2022/12/07 10:36:32;;;;;;;4.20;3.07;;;1.30;1.00;3.00;93806.00;;;;7401276;19;20133;-77
2022/12/07 10:39:43;;;;;;;3.63;2.83;;;1.60;1.00;4.20;93814.00;;;;7400084;19;20140;-76
2022/12/07 10:42:33;;;;;;;3.13;2.53;;;2.30;1.00;4.50;93801.00;;;;7397288;19;20191;-77
2022/12/07 10:45:07;;;;;;;3.10;2.43;;;3.30;1.00;4.50;93814.00;;;;7396323;19;20604;-76
2022/12/07 10:48:11;;;;;;;3.17;2.33;;;3.70;99.90;4.90;93795.00;;;;7398809;19;20618;-75
2022/12/07 10:50:59;;;;;;;2.67;2.43;;;3.90;99.90;4.40;93824.00;;;;7399798;19;20164;-76
2022/12/07 10:53:50;;;;;;;2.80;2.33;;;4.30;1.00;3.70;93796.00;;;;7398237;19;20148;-75
2022/12/07 10:56:23;;;;;;;2.70;2.10;;;4.00;1.00;2.70;93807.00;;;;7398936;19;20164;-75
2022/12/07 10:59:05;;;;;;;2.90;2.40;;;3.60;1.00;3.00;93807.00;;;;7399562;19;20479;-76
2022/12/07 11:01:46;;;;;;;2.90;2.50;;;3.00;1.00;2.70;93797.00;;;;7398775;19;20155;-75
2022/12/07 11:04:59;;;;;;;3.30;2.37;;;2.40;99.90;2.00;93810.00;;;;7398762;19;20162;-76
2022/12/07 11:07:41;;;;;;;4.20;3.17;;;2.00;99.90;1.90;93814.00;;;;7398638;19;20614;-77
2022/12/07 11:10:39;;;;;;;5.23;3.13;;;1.90;1.00;1.70;93799.00;;;;7398632;19;20148;-77
2022/12/07 11:13:52;;;;;;;3.97;3.37;;;1.70;1.00;2.10;93791.00;;;;7396725;19;20508;-75
2022/12/07 11:16:57;;;;;;;3.80;3.10;;;1.40;99.90;1.70;93795.00;;;;7397109;19;20173;-75
2022/12/07 11:20:04;;;;;;;3.27;2.97;;;1.30;99.90;2.70;93787.00;;;;7399299;19;20586;-75
2022/12/07 11:23:06;;;;;;;3.43;3.00;;;1.70;1.00;3.50;93789.00;;;;7397726;19;20136;-76
2022/12/07 11:25:58;;;;;;;3.27;2.70;;;2.20;99.90;2.80;93786.00;;;;7396785;19;20176;-76
2022/12/07 11:29:21;;;;;;;3.53;2.90;;;2.20;1.00;2.20;93766.00;;;;7399078;19;20129;-76
2022/12/07 11:32:19;;;;;;;3.17;2.53;;;2.10;99.90;1.30;93779.00;;;;7396797;19;20157;-77
2022/12/07 11:35:16;;;;;;;3.83;2.60;;;1.90;99.90;1.70;93786.00;;;;7397477;19;20152;-77
2022/12/07 11:37:46;;;;;;;3.83;2.67;;;1.70;1.00;1.70;93783.00;;;;7397631;19;20191;-76
2022/12/07 11:40:41;;;;;;;2.97;2.67;;;1.60;1.00;1.50;93782.00;;;;7399885;19;20622;-76
2022/12/07 11:43:34;;;;;;;3.50;2.60;;;1.50;1.00;1.20;93774.00;;;;7393102;19;20196;-76
2022/12/07 11:46:15;;;;;;;3.30;2.87;;;1.40;1.00;1.10;93759.00;;;;7396817;19;20164;-76
2022/12/07 11:49:43;;;;;;;5.10;3.40;;;1.40;1.00;1.50;93765.00;;;;7396966;19;20127;-76